sensor_id;sensor_type;location;lat;lon;timestamp;pressure;altitude;pressure_sealevel;temperature;humidity
67052;BME280;53957;47.222;18.670;2023-12-29T00:02:00;100591.91;;;-0.89;100.00
67052;BME280;53957;47.222;18.670;2023-12-29T00:05:04;100592.38;;;-0.79;100.00
67052;BME280;53957;47.222;18.670;2023-12-29T00:08:07;100602.44;;;-0.83;100.00
67052;BME280;53957;47.222;18.670;2023-12-29T00:11:18;100605.22;;;-0.91;100.00
67052;BME280;53957;47.222;18.670;2023-12-29T00:14:22;100594.94;;;-0.92;100.00
67052;BME280;53957;47.222;18.670;2023-12-29T08:03:24;100579.81;;;-0.90;100.00
67052;BME280;53957;47.222;18.670;2023-12-29T08:06:27;100589.03;;;-1.08;100.00
67052;BME280;53957;47.222;18.670;2023-12-29T08:09:31;100580.41;;;-1.02;100.00
67052;BME280;53957;47.222;18.670;2023-12-29T08:12:34;100579.63;;;-1.44;100.00
67052;BME280;53957;47.222;18.670;2023-12-29T08:15:38;100574.72;;;-1.60;100.00
67052;BME280;53957;47.222;18.670;2023-12-29T08:18:42;100574.72;;;-1.12;100.00
67052;BME280;53957;47.222;18.670;2023-12-29T08:21:45;100567.88;;;-1.62;100.00
67052;BME280;53957;47.222;18.670;2023-12-29T08:24:50;100570.50;;;-1.13;100.00
67052;BME280;53957;47.222;18.670;2023-12-29T08:27:56;100580.66;;;-0.83;100.00
67052;BME280;53957;47.222;18.670;2023-12-29T08:30:59;100572.66;;;-0.28;100.00
67052;BME280;53957;47.222;18.670;2023-12-29T08:34:02;100572.63;;;0.19;100.00
67052;BME280;53957;47.222;18.670;2023-12-29T08:37:05;100578.81;;;1.04;100.00
67052;BME280;53957;47.222;18.670;2023-12-29T08:40:09;100587.94;;;1.90;100.00
67052;BME280;53957;47.222;18.670;2023-12-29T08:43:12;100592.16;;;2.72;100.00
67052;BME280;53957;47.222;18.670;2023-12-29T08:46:15;100609.47;;;2.43;100.00
67052;BME280;53957;47.222;18.670;2023-12-29T08:49:18;100601.22;;;1.96;100.00
67052;BME280;53957;47.222;18.670;2023-12-29T08:52:21;100617.50;;;2.30;100.00
67052;BME280;53957;47.222;18.670;2023-12-29T08:55:25;100617.84;;;2.58;100.00
67052;BME280;53957;47.222;18.670;2023-12-29T08:58:29;100603.28;;;2.56;100.00
67052;BME280;53957;47.222;18.670;2023-12-29T09:01:32;100615.09;;;1.84;100.00
67052;BME280;53957;47.222;18.670;2023-12-29T09:04:36;100619.25;;;2.17;100.00
67052;BME280;53957;47.222;18.670;2023-12-29T09:07:39;100620.66;;;1.69;100.00
67052;BME280;53957;47.222;18.670;2023-12-29T09:10:43;100623.72;;;1.66;100.00
67052;BME280;53957;47.222;18.670;2023-12-29T09:13:46;100618.66;;;1.33;100.00
67052;BME280;53957;47.222;18.670;2023-12-29T09:16:49;100621.53;;;1.24;100.00
67052;BME280;53957;47.222;18.670;2023-12-29T09:19:53;100629.09;;;1.78;100.00
67052;BME280;53957;47.222;18.670;2023-12-29T09:23:08;100624.00;;;1.51;100.00
67052;BME280;53957;47.222;18.670;2023-12-29T09:26:11;100615.12;;;1.77;100.00
67052;BME280;53957;47.222;18.670;2023-12-29T09:29:15;100610.44;;;1.22;100.00
67052;BME280;53957;47.222;18.670;2023-12-29T09:32:18;100602.13;;;1.25;100.00
67052;BME280;53957;47.222;18.670;2023-12-29T09:35:21;100606.63;;;1.50;100.00
67052;BME280;53957;47.222;18.670;2023-12-29T09:38:24;100594.47;;;1.17;100.00
67052;BME280;53957;47.222;18.670;2023-12-29T09:41:29;100589.47;;;1.98;100.00
67052;BME280;53957;47.222;18.670;2023-12-29T09:44:35;100583.16;;;2.24;100.00
67052;BME280;53957;47.222;18.670;2023-12-29T09:47:40;100577.09;;;2.42;100.00
67052;BME280;53957;47.222;18.670;2023-12-29T09:50:44;100576.09;;;3.11;100.00
67052;BME280;53957;47.222;18.670;2023-12-29T09:53:48;100580.44;;;3.71;100.00
67052;BME280;53957;47.222;18.670;2023-12-29T09:56:51;100579.28;;;4.50;100.00
67052;BME280;53957;47.222;18.670;2023-12-29T09:59:54;100574.66;;;4.58;100.00
67052;BME280;53957;47.222;18.670;2023-12-29T10:03:00;100566.59;;;5.22;100.00
67052;BME280;53957;47.222;18.670;2023-12-29T10:06:06;100567.56;;;6.57;100.00
67052;BME280;53957;47.222;18.670;2023-12-29T10:09:12;100560.09;;;5.76;100.00
67052;BME280;53957;47.222;18.670;2023-12-29T10:12:15;100563.25;;;5.27;100.00
67052;BME280;53957;47.222;18.670;2023-12-29T10:15:41;100567.25;;;6.32;100.00
67052;BME280;53957;47.222;18.670;2023-12-29T10:18:54;100564.75;;;6.03;100.00
67052;BME280;53957;47.222;18.670;2023-12-29T10:22:31;100563.88;;;6.58;100.00
67052;BME280;53957;47.222;18.670;2023-12-29T10:25:31;100563.38;;;6.00;100.00
67052;BME280;53957;47.222;18.670;2023-12-29T10:28:34;100565.69;;;6.58;100.00
67052;BME280;53957;47.222;18.670;2023-12-29T10:31:39;100560.62;;;6.79;100.00
67052;BME280;53957;47.222;18.670;2023-12-29T10:34:42;100559.88;;;7.05;100.00
67052;BME280;53957;47.222;18.670;2023-12-29T10:37:46;100560.13;;;6.32;100.00
67052;BME280;53957;47.222;18.670;2023-12-29T10:40:49;100550.72;;;6.47;100.00
67052;BME280;53957;47.222;18.670;2023-12-29T10:43:52;100553.09;;;7.90;100.00
67052;BME280;53957;47.222;18.670;2023-12-29T10:46:57;100544.19;;;8.06;100.00
67052;BME280;53957;47.222;18.670;2023-12-29T10:50:02;100536.84;;;8.34;100.00
67052;BME280;53957;47.222;18.670;2023-12-29T10:53:16;100532.19;;;8.52;100.00
67052;BME280;53957;47.222;18.670;2023-12-29T10:56:22;100528.28;;;8.17;100.00
67052;BME280;53957;47.222;18.670;2023-12-29T10:59:25;100529.13;;;9.32;100.00
67052;BME280;53957;47.222;18.670;2023-12-29T11:02:28;100519.78;;;8.94;100.00
67052;BME280;53957;47.222;18.670;2023-12-29T11:05:31;100521.41;;;9.41;100.00
67052;BME280;53957;47.222;18.670;2023-12-29T11:08:36;100524.28;;;9.86;100.00
67052;BME280;53957;47.222;18.670;2023-12-29T11:11:39;100525.56;;;10.09;100.00
67052;BME280;53957;47.222;18.670;2023-12-29T11:14:42;100509.41;;;9.64;100.00
67052;BME280;53957;47.222;18.670;2023-12-29T11:17:49;100515.59;;;10.36;100.00
67052;BME280;53957;47.222;18.670;2023-12-29T11:20:56;100508.63;;;10.50;100.00
67052;BME280;53957;47.222;18.670;2023-12-29T11:23:59;100508.84;;;9.88;100.00
67052;BME280;53957;47.222;18.670;2023-12-29T11:27:03;100511.03;;;9.65;100.00
67052;BME280;53957;47.222;18.670;2023-12-29T11:30:11;100497.97;;;9.02;100.00
67052;BME280;53957;47.222;18.670;2023-12-29T11:33:30;100502.50;;;9.48;100.00
67052;BME280;53957;47.222;18.670;2023-12-29T11:36:40;100511.00;;;9.71;100.00
67052;BME280;53957;47.222;18.670;2023-12-29T11:39:59;100500.31;;;9.86;100.00
67052;BME280;53957;47.222;18.670;2023-12-29T11:43:12;100487.31;;;9.54;100.00
67052;BME280;53957;47.222;18.670;2023-12-29T11:46:33;100484.78;;;10.14;100.00
67052;BME280;53957;47.222;18.670;2023-12-29T11:49:59;100477.41;;;10.51;100.00
67052;BME280;53957;47.222;18.670;2023-12-29T11:53:04;100466.56;;;10.37;100.00
67052;BME280;53957;47.222;18.670;2023-12-29T11:56:15;100461.34;;;10.06;100.00
67052;BME280;53957;47.222;18.670;2023-12-29T11:59:22;100466.28;;;10.38;100.00
67052;BME280;53957;47.222;18.670;2023-12-29T12:02:28;100467.72;;;10.10;100.00
67052;BME280;53957;47.222;18.670;2023-12-29T12:05:46;100460.31;;;10.02;100.00
67052;BME280;53957;47.222;18.670;2023-12-29T12:09:21;100456.06;;;9.95;100.00
67052;BME280;53957;47.222;18.670;2023-12-29T12:12:44;100458.94;;;10.04;100.00
67052;BME280;53957;47.222;18.670;2023-12-29T12:15:47;100450.56;;;9.61;100.00
67052;BME280;53957;47.222;18.670;2023-12-29T12:18:50;100449.78;;;9.55;100.00
67052;BME280;53957;47.222;18.670;2023-12-29T12:21:54;100447.13;;;9.34;100.00
67052;BME280;53957;47.222;18.670;2023-12-29T12:24:59;100433.84;;;8.98;100.00
67052;BME280;53957;47.222;18.670;2023-12-29T12:28:07;100437.31;;;8.94;100.00
67052;BME280;53957;47.222;18.670;2023-12-29T12:31:14;100434.13;;;8.92;100.00
67052;BME280;53957;47.222;18.670;2023-12-29T12:34:18;100438.38;;;9.24;100.00
67052;BME280;53957;47.222;18.670;2023-12-29T12:37:26;100437.56;;;8.97;100.00
67052;BME280;53957;47.222;18.670;2023-12-29T12:40:29;100421.34;;;9.14;100.00
67052;BME280;53957;47.222;18.670;2023-12-29T12:43:34;100423.22;;;9.03;100.00
67052;BME280;53957;47.222;18.670;2023-12-29T12:49:50;100433.31;;;9.38;100.00
67052;BME280;53957;47.222;18.670;2023-12-29T12:52:53;100439.38;;;9.59;100.00
67052;BME280;53957;47.222;18.670;2023-12-29T12:55:56;100435.97;;;9.38;100.00
67052;BME280;53957;47.222;18.670;2023-12-29T12:59:04;100441.00;;;9.44;100.00
67052;BME280;53957;47.222;18.670;2023-12-29T13:02:08;100447.94;;;9.40;100.00
67052;BME280;53957;47.222;18.670;2023-12-29T13:05:12;100441.56;;;9.41;100.00
67052;BME280;53957;47.222;18.670;2023-12-29T13:08:16;100427.19;;;9.01;100.00
67052;BME280;53957;47.222;18.670;2023-12-29T13:11:35;100429.06;;;8.90;100.00
67052;BME280;53957;47.222;18.670;2023-12-29T13:14:38;100428.25;;;8.69;100.00
67052;BME280;53957;47.222;18.670;2023-12-29T13:17:50;100419.47;;;8.58;100.00
67052;BME280;53957;47.222;18.670;2023-12-29T13:20:53;100404.00;;;8.45;100.00
67052;BME280;53957;47.222;18.670;2023-12-29T13:23:57;100412.28;;;8.53;100.00
67052;BME280;53957;47.222;18.670;2023-12-29T13:27:05;100405.91;;;8.70;100.00
67052;BME280;53957;47.222;18.670;2023-12-29T13:30:09;100388.38;;;8.59;100.00
67052;BME280;53957;47.222;18.670;2023-12-29T13:33:30;100391.28;;;8.62;100.00
67052;BME280;53957;47.222;18.670;2023-12-29T13:36:36;100396.37;;;8.74;100.00
67052;BME280;53957;47.222;18.670;2023-12-29T13:39:46;100400.34;;;8.77;100.00
67052;BME280;53957;47.222;18.670;2023-12-29T13:42:57;100402.47;;;8.85;100.00
67052;BME280;53957;47.222;18.670;2023-12-29T13:46:03;100380.69;;;8.83;100.00
67052;BME280;53957;47.222;18.670;2023-12-29T13:49:08;100378.25;;;8.76;100.00
67052;BME280;53957;47.222;18.670;2023-12-29T13:52:12;100382.53;;;8.62;100.00
67052;BME280;53957;47.222;18.670;2023-12-29T13:55:22;100375.34;;;8.67;100.00
67052;BME280;53957;47.222;18.670;2023-12-29T13:58:26;100371.09;;;8.56;100.00
67052;BME280;53957;47.222;18.670;2023-12-29T14:01:34;100383.31;;;8.57;100.00
67052;BME280;53957;47.222;18.670;2023-12-29T14:04:38;100380.09;;;8.45;100.00
67052;BME280;53957;47.222;18.670;2023-12-29T14:07:53;100383.75;;;8.23;100.00
67052;BME280;53957;47.222;18.670;2023-12-29T14:10:57;100395.97;;;8.19;100.00
67052;BME280;53957;47.222;18.670;2023-12-29T14:14:00;100408.34;;;7.82;100.00
67052;BME280;53957;47.222;18.670;2023-12-29T14:17:03;100402.91;;;7.14;100.00
67052;BME280;53957;47.222;18.670;2023-12-29T14:20:07;100387.00;;;7.14;100.00
67052;BME280;53957;47.222;18.670;2023-12-29T14:23:12;100400.75;;;7.11;100.00
67052;BME280;53957;47.222;18.670;2023-12-29T14:26:16;100398.00;;;6.63;100.00
67052;BME280;53957;47.222;18.670;2023-12-29T14:29:20;100389.09;;;6.47;100.00
67052;BME280;53957;47.222;18.670;2023-12-29T14:32:24;100397.00;;;6.41;100.00
67052;BME280;53957;47.222;18.670;2023-12-29T14:35:27;100396.09;;;6.31;100.00
67052;BME280;53957;47.222;18.670;2023-12-29T14:38:32;100403.59;;;6.11;100.00
67052;BME280;53957;47.222;18.670;2023-12-29T14:41:35;100394.50;;;5.85;100.00
67052;BME280;53957;47.222;18.670;2023-12-29T14:44:38;100393.69;;;5.85;100.00
67052;BME280;53957;47.222;18.670;2023-12-29T14:47:42;100384.88;;;5.79;100.00
67052;BME280;53957;47.222;18.670;2023-12-29T14:50:46;100386.06;;;5.66;100.00
67052;BME280;53957;47.222;18.670;2023-12-29T14:53:50;100392.81;;;5.57;100.00
67052;BME280;53957;47.222;18.670;2023-12-29T14:56:53;100400.31;;;5.43;100.00
67052;BME280;53957;47.222;18.670;2023-12-29T15:00:10;100398.81;;;5.30;100.00
67052;BME280;53957;47.222;18.670;2023-12-29T15:03:13;100400.59;;;5.07;100.00
67052;BME280;53957;47.222;18.670;2023-12-29T15:06:20;100392.44;;;4.92;100.00
67052;BME280;53957;47.222;18.670;2023-12-29T15:09:23;100384.97;;;4.72;100.00
67052;BME280;53957;47.222;18.670;2023-12-29T15:12:26;100398.81;;;4.62;100.00
67052;BME280;53957;47.222;18.670;2023-12-29T15:15:29;100403.28;;;4.61;100.00
67052;BME280;53957;47.222;18.670;2023-12-29T15:18:32;100422.12;;;4.36;100.00
67052;BME280;53957;47.222;18.670;2023-12-29T15:21:35;100409.84;;;4.01;100.00
67052;BME280;53957;47.222;18.670;2023-12-29T15:24:38;100411.69;;;3.89;100.00
67052;BME280;53957;47.222;18.670;2023-12-29T15:27:42;100417.66;;;3.96;100.00
67052;BME280;53957;47.222;18.670;2023-12-29T15:30:45;100413.69;;;3.69;100.00
67052;BME280;53957;47.222;18.670;2023-12-29T15:33:50;100420.22;;;3.67;100.00
67052;BME280;53957;47.222;18.670;2023-12-29T15:36:54;100429.41;;;3.52;100.00
67052;BME280;53957;47.222;18.670;2023-12-29T15:39:57;100426.66;;;3.47;100.00
67052;BME280;53957;47.222;18.670;2023-12-29T15:43:00;100424.59;;;3.26;100.00
67052;BME280;53957;47.222;18.670;2023-12-29T15:46:16;100433.28;;;3.14;100.00
67052;BME280;53957;47.222;18.670;2023-12-29T15:49:20;100434.66;;;3.05;100.00
67052;BME280;53957;47.222;18.670;2023-12-29T15:52:22;100440.13;;;2.92;100.00
67052;BME280;53957;47.222;18.670;2023-12-29T15:55:26;100443.22;;;2.88;100.00
67052;BME280;53957;47.222;18.670;2023-12-29T15:58:29;100446.94;;;2.69;100.00
67052;BME280;53957;47.222;18.670;2023-12-29T16:01:32;100447.06;;;2.74;100.00
67052;BME280;53957;47.222;18.670;2023-12-29T16:04:38;100446.81;;;2.64;100.00
67052;BME280;53957;47.222;18.670;2023-12-29T16:07:41;100439.19;;;2.44;100.00
67052;BME280;53957;47.222;18.670;2023-12-29T16:10:45;100441.25;;;2.84;100.00
67052;BME280;53957;47.222;18.670;2023-12-29T16:13:48;100444.63;;;2.61;100.00
67052;BME280;53957;47.222;18.670;2023-12-29T16:16:52;100438.09;;;2.33;100.00
67052;BME280;53957;47.222;18.670;2023-12-29T16:19:54;100428.97;;;2.17;100.00
67052;BME280;53957;47.222;18.670;2023-12-29T16:22:57;100431.00;;;2.15;100.00
67052;BME280;53957;47.222;18.670;2023-12-29T16:26:07;100427.59;;;2.14;100.00
67052;BME280;53957;47.222;18.670;2023-12-29T16:29:11;100417.66;;;2.16;100.00
67052;BME280;53957;47.222;18.670;2023-12-29T16:32:23;100421.09;;;1.98;100.00
67052;BME280;53957;47.222;18.670;2023-12-29T16:35:36;100420.22;;;2.04;100.00
67052;BME280;53957;47.222;18.670;2023-12-29T16:38:49;100418.59;;;2.03;100.00
67052;BME280;53957;47.222;18.670;2023-12-29T16:41:53;100408.81;;;1.92;100.00
67052;BME280;53957;47.222;18.670;2023-12-29T16:44:56;100409.69;;;2.04;100.00
67052;BME280;53957;47.222;18.670;2023-12-29T16:47:59;100398.06;;;1.93;100.00
67052;BME280;53957;47.222;18.670;2023-12-29T16:51:05;100404.22;;;1.87;100.00
67052;BME280;53957;47.222;18.670;2023-12-29T16:54:15;100401.31;;;1.77;100.00
67052;BME280;53957;47.222;18.670;2023-12-29T16:57:17;100397.53;;;1.73;100.00
67052;BME280;53957;47.222;18.670;2023-12-29T17:00:21;100401.72;;;1.74;100.00
67052;BME280;53957;47.222;18.670;2023-12-29T17:03:24;100412.25;;;1.74;100.00
67052;BME280;53957;47.222;18.670;2023-12-29T17:06:27;100410.22;;;1.95;100.00
67052;BME280;53957;47.222;18.670;2023-12-29T17:09:30;100410.94;;;1.83;100.00
67052;BME280;53957;47.222;18.670;2023-12-29T17:12:34;100409.25;;;1.70;100.00
67052;BME280;53957;47.222;18.670;2023-12-29T17:15:36;100401.31;;;1.58;100.00
67052;BME280;53957;47.222;18.670;2023-12-29T17:18:40;100390.78;;;1.58;100.00
67052;BME280;53957;47.222;18.670;2023-12-29T17:21:43;100396.47;;;1.74;100.00
67052;BME280;53957;47.222;18.670;2023-12-29T17:24:46;100401.72;;;1.74;100.00
67052;BME280;53957;47.222;18.670;2023-12-29T17:27:49;100393.47;;;1.70;100.00
67052;BME280;53957;47.222;18.670;2023-12-29T17:30:52;100387.69;;;1.99;100.00
67052;BME280;53957;47.222;18.670;2023-12-29T17:33:56;100383.19;;;1.87;100.00
67052;BME280;53957;47.222;18.670;2023-12-29T17:37:00;100385.03;;;2.17;100.00
67052;BME280;53957;47.222;18.670;2023-12-29T17:40:03;100384.50;;;1.97;100.00
67052;BME280;53957;47.222;18.670;2023-12-29T17:43:07;100384.69;;;1.95;100.00
67052;BME280;53957;47.222;18.670;2023-12-29T17:46:11;100381.28;;;1.95;100.00
67052;BME280;53957;47.222;18.670;2023-12-29T17:49:14;100387.47;;;2.19;100.00
67052;BME280;53957;47.222;18.670;2023-12-29T17:52:18;100383.84;;;2.01;100.00
67052;BME280;53957;47.222;18.670;2023-12-29T17:55:22;100391.53;;;1.66;100.00
67052;BME280;53957;47.222;18.670;2023-12-29T17:58:25;100392.69;;;1.51;100.00
67052;BME280;53957;47.222;18.670;2023-12-29T18:01:28;100384.03;;;1.44;100.00
67052;BME280;53957;47.222;18.670;2023-12-29T18:04:32;100396.53;;;1.49;100.00
67052;BME280;53957;47.222;18.670;2023-12-29T18:07:35;100398.69;;;1.58;100.00
67052;BME280;53957;47.222;18.670;2023-12-29T18:10:38;100403.34;;;1.56;100.00
67052;BME280;53957;47.222;18.670;2023-12-29T18:13:41;100408.34;;;1.39;100.00
67052;BME280;53957;47.222;18.670;2023-12-29T18:16:44;100406.34;;;1.16;100.00
67052;BME280;53957;47.222;18.670;2023-12-29T18:19:47;100401.19;;;1.03;100.00
67052;BME280;53957;47.222;18.670;2023-12-29T18:22:50;100404.88;;;0.95;100.00
67052;BME280;53957;47.222;18.670;2023-12-29T18:25:53;100413.47;;;1.09;100.00
67052;BME280;53957;47.222;18.670;2023-12-29T18:28:58;100402.94;;;0.84;100.00
67052;BME280;53957;47.222;18.670;2023-12-29T18:32:02;100405.19;;;0.80;100.00
67052;BME280;53957;47.222;18.670;2023-12-29T18:35:23;100400.84;;;0.67;100.00
67052;BME280;53957;47.222;18.670;2023-12-29T18:38:26;100401.09;;;0.59;100.00
67052;BME280;53957;47.222;18.670;2023-12-29T18:41:29;100406.97;;;0.54;100.00
67052;BME280;53957;47.222;18.670;2023-12-29T18:44:37;100385.87;;;0.36;100.00
67052;BME280;53957;47.222;18.670;2023-12-29T18:47:40;100385.69;;;0.37;100.00
67052;BME280;53957;47.222;18.670;2023-12-29T18:50:43;100385.84;;;0.42;100.00
67052;BME280;53957;47.222;18.670;2023-12-29T18:53:46;100379.22;;;0.40;100.00
67052;BME280;53957;47.222;18.670;2023-12-29T18:56:49;100376.37;;;0.41;100.00
67052;BME280;53957;47.222;18.670;2023-12-29T18:59:52;100380.00;;;0.40;100.00
67052;BME280;53957;47.222;18.670;2023-12-29T19:02:55;100376.22;;;0.29;100.00
67052;BME280;53957;47.222;18.670;2023-12-29T19:05:58;100375.87;;;0.19;100.00
67052;BME280;53957;47.222;18.670;2023-12-29T19:09:01;100366.41;;;0.18;100.00
67052;BME280;53957;47.222;18.670;2023-12-29T19:12:05;100372.81;;;0.22;100.00
67052;BME280;53957;47.222;18.670;2023-12-29T19:15:08;100372.66;;;0.17;100.00
67052;BME280;53957;47.222;18.670;2023-12-29T19:18:12;100372.91;;;0.09;100.00
67052;BME280;53957;47.222;18.670;2023-12-29T19:21:15;100370.47;;;0.14;100.00
67052;BME280;53957;47.222;18.670;2023-12-29T19:24:18;100372.06;;;0.15;100.00
67052;BME280;53957;47.222;18.670;2023-12-29T19:27:21;100377.91;;;0.17;100.00
67052;BME280;53957;47.222;18.670;2023-12-29T19:30:25;100378.56;;;0.12;100.00
67052;BME280;53957;47.222;18.670;2023-12-29T19:33:28;100385.06;;;-0.04;100.00
67052;BME280;53957;47.222;18.670;2023-12-29T19:36:32;100391.53;;;-0.13;100.00
67052;BME280;53957;47.222;18.670;2023-12-29T19:39:35;100381.34;;;0.18;100.00
67052;BME280;53957;47.222;18.670;2023-12-29T19:42:38;100380.91;;;0.27;100.00
67052;BME280;53957;47.222;18.670;2023-12-29T19:45:41;100374.38;;;-0.02;100.00
67052;BME280;53957;47.222;18.670;2023-12-29T19:48:46;100380.06;;;-0.12;100.00
67052;BME280;53957;47.222;18.670;2023-12-29T19:51:49;100383.06;;;-0.15;100.00
67052;BME280;53957;47.222;18.670;2023-12-29T20:20:46;100364.28;;;-0.64;100.00
67052;BME280;53957;47.222;18.670;2023-12-29T20:23:52;100369.50;;;-0.57;100.00
67052;BME280;53957;47.222;18.670;2023-12-29T20:26:54;100363.44;;;-0.51;100.00
67052;BME280;53957;47.222;18.670;2023-12-29T20:29:58;100365.84;;;-0.43;100.00
67052;BME280;53957;47.222;18.670;2023-12-29T20:33:01;100362.63;;;-0.52;100.00
67052;BME280;53957;47.222;18.670;2023-12-29T20:36:07;100367.69;;;-0.57;100.00
67052;BME280;53957;47.222;18.670;2023-12-29T20:39:09;100363.66;;;-0.66;100.00
67052;BME280;53957;47.222;18.670;2023-12-29T20:42:13;100357.41;;;-0.72;100.00
67052;BME280;53957;47.222;18.670;2023-12-29T20:45:16;100347.50;;;-0.50;100.00
67052;BME280;53957;47.222;18.670;2023-12-29T20:48:19;100349.91;;;-0.41;100.00
67052;BME280;53957;47.222;18.670;2023-12-29T20:51:22;100344.47;;;-0.53;100.00
67052;BME280;53957;47.222;18.670;2023-12-29T20:54:27;100352.13;;;-0.38;100.00
67052;BME280;53957;47.222;18.670;2023-12-29T20:57:34;100348.34;;;-0.69;100.00
67052;BME280;53957;47.222;18.670;2023-12-29T21:00:38;100342.72;;;-0.73;100.00
67052;BME280;53957;47.222;18.670;2023-12-29T21:03:41;100334.06;;;-0.67;100.00
67052;BME280;53957;47.222;18.670;2023-12-29T21:06:44;100345.31;;;-0.66;100.00
67052;BME280;53957;47.222;18.670;2023-12-29T21:09:47;100344.56;;;-0.14;100.00
67052;BME280;53957;47.222;18.670;2023-12-29T21:12:51;100346.09;;;-0.45;100.00
67052;BME280;53957;47.222;18.670;2023-12-29T21:15:57;100341.91;;;-0.67;100.00
67052;BME280;53957;47.222;18.670;2023-12-29T21:19:00;100340.94;;;-0.92;100.00
67052;BME280;53957;47.222;18.670;2023-12-29T21:22:03;100349.69;;;-0.40;100.00
67052;BME280;53957;47.222;18.670;2023-12-29T21:25:07;100343.28;;;-0.57;100.00
67052;BME280;53957;47.222;18.670;2023-12-29T21:28:10;100338.28;;;-0.72;100.00
67052;BME280;53957;47.222;18.670;2023-12-29T21:31:15;100342.53;;;-0.98;100.00
67052;BME280;53957;47.222;18.670;2023-12-29T21:34:18;100334.06;;;-0.80;100.00
67052;BME280;53957;47.222;18.670;2023-12-29T21:37:22;100339.50;;;-0.75;100.00
67052;BME280;53957;47.222;18.670;2023-12-29T21:40:25;100340.53;;;-0.89;100.00
67052;BME280;53957;47.222;18.670;2023-12-29T21:43:29;100340.31;;;-0.81;100.00
67052;BME280;53957;47.222;18.670;2023-12-29T21:46:32;100333.22;;;-0.67;100.00
67052;BME280;53957;47.222;18.670;2023-12-29T21:49:35;100335.59;;;-0.52;100.00
67052;BME280;53957;47.222;18.670;2023-12-29T21:52:42;100323.50;;;-0.53;100.00
67052;BME280;53957;47.222;18.670;2023-12-29T21:55:45;100323.06;;;-0.37;100.00
67052;BME280;53957;47.222;18.670;2023-12-29T21:58:48;100322.47;;;-0.39;100.00
67052;BME280;53957;47.222;18.670;2023-12-29T22:01:55;100323.06;;;-0.37;100.00
67052;BME280;53957;47.222;18.670;2023-12-29T22:04:59;100324.56;;;-0.09;100.00
67052;BME280;53957;47.222;18.670;2023-12-29T22:08:02;100332.97;;;0.07;100.00
67052;BME280;53957;47.222;18.670;2023-12-29T22:11:05;100331.09;;;-0.25;100.00
67052;BME280;53957;47.222;18.670;2023-12-29T22:14:08;100323.62;;;0.18;100.00
67052;BME280;53957;47.222;18.670;2023-12-29T22:17:12;100330.09;;;-0.30;100.00
67052;BME280;53957;47.222;18.670;2023-12-29T22:20:15;100324.09;;;-0.38;100.00
67052;BME280;53957;47.222;18.670;2023-12-29T22:23:19;100325.56;;;-0.55;100.00
67052;BME280;53957;47.222;18.670;2023-12-29T22:26:22;100324.16;;;-0.58;100.00
67052;BME280;53957;47.222;18.670;2023-12-29T22:29:25;100323.72;;;-0.55;100.00
67052;BME280;53957;47.222;18.670;2023-12-29T22:32:31;100322.53;;;-0.66;100.00
67052;BME280;53957;47.222;18.670;2023-12-29T22:35:34;100332.03;;;-0.78;100.00
67052;BME280;53957;47.222;18.670;2023-12-29T22:38:38;100331.03;;;-0.77;100.00
67052;BME280;53957;47.222;18.670;2023-12-29T22:41:42;100342.91;;;-0.68;100.00
67052;BME280;53957;47.222;18.670;2023-12-29T22:44:45;100343.53;;;-0.79;100.00
67052;BME280;53957;47.222;18.670;2023-12-29T22:47:48;100327.19;;;-0.68;100.00
67052;BME280;53957;47.222;18.670;2023-12-29T22:50:51;100345.72;;;-0.69;100.00
67052;BME280;53957;47.222;18.670;2023-12-29T22:53:54;100342.50;;;-0.65;100.00
67052;BME280;53957;47.222;18.670;2023-12-29T22:56:57;100340.88;;;-0.66;100.00
67052;BME280;53957;47.222;18.670;2023-12-29T23:00:04;100336.84;;;-0.61;100.00
67052;BME280;53957;47.222;18.670;2023-12-29T23:03:10;100328.84;;;-0.93;100.00
67052;BME280;53957;47.222;18.670;2023-12-29T23:06:13;100328.25;;;-1.16;100.00
67052;BME280;53957;47.222;18.670;2023-12-29T23:09:16;100319.81;;;-1.18;100.00
67052;BME280;53957;47.222;18.670;2023-12-29T23:12:20;100324.44;;;-1.13;100.00
67052;BME280;53957;47.222;18.670;2023-12-29T23:15:23;100317.97;;;-1.04;100.00
67052;BME280;53957;47.222;18.670;2023-12-29T23:18:26;100303.91;;;-1.30;100.00
67052;BME280;53957;47.222;18.670;2023-12-29T23:21:30;100309.34;;;-1.24;100.00
67052;BME280;53957;47.222;18.670;2023-12-29T23:24:38;100308.34;;;-1.23;100.00
67052;BME280;53957;47.222;18.670;2023-12-29T23:27:40;100307.31;;;-1.09;100.00
67052;BME280;53957;47.222;18.670;2023-12-29T23:30:43;100309.13;;;-1.09;100.00
67052;BME280;53957;47.222;18.670;2023-12-29T23:33:46;100313.16;;;-1.07;100.00
67052;BME280;53957;47.222;18.670;2023-12-29T23:36:49;100306.09;;;-1.00;100.00
67052;BME280;53957;47.222;18.670;2023-12-29T23:39:52;100302.31;;;-1.17;100.00
67052;BME280;53957;47.222;18.670;2023-12-29T23:42:56;100307.53;;;-1.31;100.00
67052;BME280;53957;47.222;18.670;2023-12-29T23:45:59;100315.56;;;-1.39;100.00
67052;BME280;53957;47.222;18.670;2023-12-29T23:49:02;100314.97;;;-1.27;100.00
67052;BME280;53957;47.222;18.670;2023-12-29T23:52:05;100308.13;;;-1.08;100.00
67052;BME280;53957;47.222;18.670;2023-12-29T23:55:08;100306.28;;;-0.94;100.00
67052;BME280;53957;47.222;18.670;2023-12-29T23:58:11;100300.50;;;-1.23;100.00
